createdAt,value
2019-01-20T00:00:55.000Z,27.2
2019-01-20T00:01:55.000Z,27.2
2019-01-20T00:03:55.000Z,27.2
2019-01-20T00:05:55.000Z,27.2
2019-01-20T00:07:55.000Z,27.2
2019-01-20T00:08:55.000Z,27.2
2019-01-20T00:10:55.000Z,27.2
2019-01-20T00:12:55.000Z,27.2
2019-01-20T00:14:55.000Z,27.2
2019-01-20T00:15:55.000Z,27.1
2019-01-20T00:17:55.000Z,27.1
2019-01-20T00:19:55.000Z,27.1
2019-01-20T00:21:55.000Z,27.1
2019-01-20T00:23:55.000Z,27.1
2019-01-20T00:24:55.000Z,27.1
2019-01-20T00:26:55.000Z,27.1
2019-01-20T00:28:40.000Z,27.1
2019-01-20T00:29:55.000Z,27.1
2019-01-20T00:30:55.000Z,27.1
2019-01-20T00:31:55.000Z,27.1
2019-01-20T00:32:55.000Z,27.1
2019-01-20T00:33:55.000Z,27.2
2019-01-20T00:34:55.000Z,27.2
2019-01-20T00:36:55.000Z,27.1
2019-01-20T00:37:55.000Z,27.1
2019-01-20T00:39:55.000Z,27.1
2019-01-20T00:41:40.000Z,27.1
2019-01-20T00:42:55.000Z,27.1
2019-01-20T00:43:55.000Z,27.1
2019-01-20T00:45:55.000Z,27.1
2019-01-20T00:46:55.000Z,27.1
2019-01-20T00:47:55.000Z,27.1
2019-01-20T00:49:55.000Z,27.1
2019-01-20T00:51:55.000Z,27.1
2019-01-20T00:53:55.000Z,27.1
2019-01-20T00:55:40.000Z,27.1
2019-01-20T00:56:55.000Z,27.1
2019-01-20T00:57:55.000Z,27.1
2019-01-20T00:59:55.000Z,27.1
2019-01-20T01:00:55.000Z,27.1
2019-01-20T01:01:55.000Z,27.1
2019-01-20T01:03:55.000Z,27
2019-01-20T01:04:55.000Z,27
2019-01-20T01:06:55.000Z,27
2019-01-20T01:07:55.000Z,27
2019-01-20T01:09:55.000Z,27.1
2019-01-20T01:11:40.000Z,27.1
2019-01-20T01:12:55.000Z,27
2019-01-20T01:13:55.000Z,27.1
2019-01-20T01:14:55.000Z,27.1
2019-01-20T01:15:55.000Z,27.1
2019-01-20T01:16:55.000Z,27.1
2019-01-20T01:18:55.000Z,27
2019-01-20T01:20:55.000Z,27.1
2019-01-20T01:21:55.000Z,27.1
2019-01-20T01:22:55.000Z,27.1
2019-01-20T01:24:55.000Z,27.1
2019-01-20T01:26:55.000Z,27.1
2019-01-20T01:28:55.000Z,27.1
2019-01-20T01:30:55.000Z,27.1
2019-01-20T01:32:55.000Z,27.1
2019-01-20T01:34:55.000Z,27
2019-01-20T01:36:55.000Z,27
2019-01-20T01:38:55.000Z,27
2019-01-20T01:39:55.000Z,27
2019-01-20T01:41:55.000Z,27
2019-01-20T01:42:55.000Z,27
2019-01-20T01:44:55.000Z,27
2019-01-20T01:46:55.000Z,27
2019-01-20T01:47:55.000Z,27
2019-01-20T01:49:55.000Z,27
2019-01-20T01:50:55.000Z,27
2019-01-20T01:52:55.000Z,27
2019-01-20T01:54:40.000Z,27
2019-01-20T01:55:55.000Z,27
2019-01-20T01:57:55.000Z,27
2019-01-20T01:59:55.000Z,27
2019-01-20T02:01:55.000Z,27
2019-01-20T02:02:55.000Z,27
2019-01-20T02:04:55.000Z,27
2019-01-20T02:06:55.000Z,27
2019-01-20T02:08:55.000Z,27
2019-01-20T02:10:55.000Z,26.9
2019-01-20T02:12:55.000Z,26.9
2019-01-20T02:13:55.000Z,27
2019-01-20T02:15:55.000Z,27
2019-01-20T02:17:55.000Z,27
2019-01-20T02:18:55.000Z,27
2019-01-20T02:20:55.000Z,27
2019-01-20T02:21:55.000Z,27
2019-01-20T02:23:55.000Z,27
2019-01-20T02:25:55.000Z,27
2019-01-20T02:27:55.000Z,27
2019-01-20T02:28:55.000Z,27
2019-01-20T02:30:40.000Z,27
2019-01-20T02:31:55.000Z,27
2019-01-20T02:32:55.000Z,27
2019-01-20T02:34:55.000Z,26.9
2019-01-20T02:35:55.000Z,27
2019-01-20T02:37:55.000Z,27
2019-01-20T02:39:55.000Z,27
2019-01-20T02:40:55.000Z,26.9
2019-01-20T02:42:55.000Z,26.9
2019-01-20T02:44:55.000Z,26.9
2019-01-20T02:46:40.000Z,26.9
2019-01-20T02:47:55.000Z,26.9
2019-01-20T02:48:55.000Z,26.9
2019-01-20T02:50:55.000Z,26.9
2019-01-20T02:51:55.000Z,26.9
2019-01-20T02:52:55.000Z,26.9
2019-01-20T02:54:55.000Z,26.9
2019-01-20T02:55:55.000Z,26.9
2019-01-20T02:57:55.000Z,26.9
2019-01-20T02:58:55.000Z,26.9
2019-01-20T03:00:40.000Z,26.9
2019-01-20T03:01:55.000Z,26.9
2019-01-20T03:03:55.000Z,26.9
2019-01-20T03:04:55.000Z,26.9
2019-01-20T03:06:55.000Z,26.9
2019-01-20T03:07:55.000Z,26.9
2019-01-20T03:08:55.000Z,26.9
2019-01-20T03:10:55.000Z,26.9
2019-01-20T03:12:55.000Z,26.9
2019-01-20T03:14:55.000Z,26.9
2019-01-20T03:16:55.000Z,26.8
2019-01-20T03:17:55.000Z,26.8
2019-01-20T03:19:55.000Z,26.9
2019-01-20T03:20:55.000Z,26.9
2019-01-20T03:21:55.000Z,26.9
2019-01-20T03:23:55.000Z,26.9
2019-01-20T03:25:55.000Z,26.9
2019-01-20T03:26:55.000Z,26.9
2019-01-20T03:27:55.000Z,26.9
2019-01-20T03:29:55.000Z,26.9
2019-01-20T03:30:55.000Z,26.9
2019-01-20T03:31:55.000Z,26.9
2019-01-20T03:33:55.000Z,26.9
2019-01-20T03:35:55.000Z,26.9
2019-01-20T03:36:55.000Z,26.9
2019-01-20T03:37:55.000Z,26.9
2019-01-20T03:39:55.000Z,26.9
2019-01-20T03:40:55.000Z,26.9
2019-01-20T03:41:55.000Z,26.9
2019-01-20T03:43:55.000Z,26.9
2019-01-20T03:45:55.000Z,26.9
2019-01-20T03:47:55.000Z,26.9
2019-01-20T03:49:55.000Z,26.9
2019-01-20T03:50:55.000Z,26.9
2019-01-20T03:52:55.000Z,26.9
2019-01-20T03:53:55.000Z,26.8
2019-01-20T03:54:55.000Z,26.9
2019-01-20T03:56:55.000Z,26.9
2019-01-20T03:58:55.000Z,26.9
2019-01-20T04:00:40.000Z,26.8
2019-01-20T04:01:55.000Z,26.8
2019-01-20T04:02:55.000Z,26.8
2019-01-20T04:04:55.000Z,26.8
2019-01-20T04:06:55.000Z,26.8
2019-01-20T04:08:40.000Z,26.8
2019-01-20T04:09:55.000Z,26.8
2019-01-20T04:11:55.000Z,26.8
2019-01-20T04:13:55.000Z,26.8
2019-01-20T04:15:55.000Z,26.8
2019-01-20T04:17:55.000Z,26.8
2019-01-20T04:18:55.000Z,26.8
2019-01-20T04:20:55.000Z,26.8
2019-01-20T04:22:55.000Z,26.8
2019-01-20T04:24:55.000Z,26.8
2019-01-20T04:26:40.000Z,26.8
2019-01-20T04:27:55.000Z,26.8
2019-01-20T04:28:55.000Z,26.7
2019-01-20T04:30:55.000Z,26.7
2019-01-20T04:31:55.000Z,26.7
2019-01-20T04:32:55.000Z,26.7
2019-01-20T04:33:55.000Z,26.7
2019-01-20T04:35:55.000Z,26.7
2019-01-20T04:36:55.000Z,26.7
2019-01-20T04:37:55.000Z,26.8
2019-01-20T04:39:55.000Z,26.8
2019-01-20T04:41:55.000Z,26.8
2019-01-20T04:42:55.000Z,26.8
2019-01-20T04:44:55.000Z,26.8
2019-01-20T04:45:55.000Z,26.8
2019-01-20T04:46:55.000Z,26.8
2019-01-20T04:48:55.000Z,26.7
2019-01-20T04:49:55.000Z,26.7
2019-01-20T04:50:55.000Z,26.7
2019-01-20T04:51:55.000Z,26.7
2019-01-20T04:53:55.000Z,26.8
2019-01-20T04:54:55.000Z,26.8
2019-01-20T04:55:55.000Z,26.8
2019-01-20T04:57:55.000Z,26.8
2019-01-20T04:59:55.000Z,26.7
2019-01-20T05:00:55.000Z,26.7
2019-01-20T05:02:55.000Z,26.7
2019-01-20T05:04:55.000Z,26.7
2019-01-20T05:05:55.000Z,26.7
2019-01-20T05:07:40.000Z,26.7
2019-01-20T05:08:55.000Z,26.7
2019-01-20T05:10:55.000Z,26.7
2019-01-20T05:11:55.000Z,26.7
2019-01-20T05:13:55.000Z,26.7
2019-01-20T05:15:55.000Z,26.7
2019-01-20T05:16:55.000Z,26.7
2019-01-20T05:17:55.000Z,26.7
2019-01-20T05:19:55.000Z,26.7
2019-01-20T05:20:55.000Z,26.7
2019-01-20T05:21:55.000Z,26.7
2019-01-20T05:23:55.000Z,26.7
2019-01-20T05:24:55.000Z,26.7
2019-01-20T05:25:55.000Z,26.7
2019-01-20T05:26:55.000Z,26.7
2019-01-20T05:27:55.000Z,26.7
2019-01-20T05:29:55.000Z,26.7
2019-01-20T05:31:40.000Z,26.7
2019-01-20T05:32:55.000Z,26.7
2019-01-20T05:34:55.000Z,26.7
2019-01-20T05:36:40.000Z,26.7
2019-01-20T05:37:55.000Z,26.7
2019-01-20T05:39:40.000Z,26.7
2019-01-20T05:40:55.000Z,26.7
2019-01-20T05:42:40.000Z,26.7
2019-01-20T05:43:55.000Z,26.6
2019-01-20T05:45:55.000Z,26.6
2019-01-20T05:46:55.000Z,26.6
2019-01-20T05:47:55.000Z,26.7
2019-01-20T05:49:55.000Z,26.7
2019-01-20T05:51:55.000Z,26.7
2019-01-20T05:52:55.000Z,26.7
2019-01-20T05:54:55.000Z,26.7
2019-01-20T05:55:55.000Z,26.7
2019-01-20T05:57:55.000Z,26.6
2019-01-20T05:59:40.000Z,26.6
2019-01-20T06:00:55.000Z,26.6
2019-01-20T06:02:55.000Z,26.6
2019-01-20T06:04:55.000Z,26.7
2019-01-20T06:05:55.000Z,26.7
2019-01-20T06:07:55.000Z,26.6
2019-01-20T06:08:55.000Z,26.6
2019-01-20T06:09:55.000Z,26.6
2019-01-20T06:10:55.000Z,26.7
2019-01-20T06:12:55.000Z,26.7
2019-01-20T06:13:55.000Z,26.6
2019-01-20T06:15:55.000Z,26.6
2019-01-20T06:17:55.000Z,26.7
2019-01-20T06:18:55.000Z,26.7
2019-01-20T06:20:55.000Z,26.6
2019-01-20T06:21:55.000Z,26.6
2019-01-20T06:23:55.000Z,26.6
2019-01-20T06:24:55.000Z,26.7
2019-01-20T06:26:55.000Z,26.7
2019-01-20T06:27:55.000Z,26.6
2019-01-20T06:29:55.000Z,26.7
2019-01-20T06:30:55.000Z,26.7
2019-01-20T06:31:55.000Z,26.7
2019-01-20T06:33:55.000Z,26.6
2019-01-20T06:35:55.000Z,26.6
2019-01-20T06:36:55.000Z,26.6
2019-01-20T06:38:55.000Z,26.6
2019-01-20T06:40:55.000Z,26.6
2019-01-20T06:42:55.000Z,26.6
2019-01-20T06:44:55.000Z,26.6
2019-01-20T06:46:55.000Z,26.6
2019-01-20T06:48:55.000Z,26.6
2019-01-20T06:50:55.000Z,26.6
2019-01-20T06:52:40.000Z,26.6
2019-01-20T06:53:55.000Z,26.5
2019-01-20T06:54:55.000Z,26.6
2019-01-20T06:56:40.000Z,26.6
2019-01-20T06:57:41.000Z,26.6
2019-01-20T06:58:55.000Z,26.6
2019-01-20T07:00:55.000Z,26.6
2019-01-20T07:02:55.000Z,26.6
2019-01-20T07:04:55.000Z,26.6
2019-01-20T07:06:55.000Z,26.6
2019-01-20T07:07:55.000Z,26.6
2019-01-20T07:08:55.000Z,26.5
2019-01-20T07:10:55.000Z,26.5
2019-01-20T07:11:55.000Z,26.5
2019-01-20T07:12:55.000Z,26.5
2019-01-20T07:13:55.000Z,26.6
2019-01-20T07:15:55.000Z,26.5
2019-01-20T07:16:55.000Z,26.5
2019-01-20T07:17:55.000Z,26.5
2019-01-20T07:19:55.000Z,26.6
2019-01-20T07:21:40.000Z,26.5
2019-01-20T07:22:55.000Z,26.5
2019-01-20T07:24:55.000Z,26.5
2019-01-20T07:25:55.000Z,26.5
2019-01-20T07:27:55.000Z,26.5
2019-01-20T07:29:55.000Z,26.5
2019-01-20T07:30:55.000Z,26.5
2019-01-20T07:32:55.000Z,26.5
2019-01-20T07:34:55.000Z,26.5
2019-01-20T07:35:55.000Z,26.5
2019-01-20T07:37:41.000Z,26.6
2019-01-20T07:38:55.000Z,26.5
2019-01-20T07:39:55.000Z,26.6
2019-01-20T07:41:55.000Z,26.6
2019-01-20T07:42:55.000Z,26.6
2019-01-20T07:44:41.000Z,26.5
2019-01-20T07:45:55.000Z,26.6
2019-01-20T07:46:55.000Z,26.6
2019-01-20T07:47:55.000Z,26.6
2019-01-20T07:49:55.000Z,26.7
2019-01-20T07:50:55.000Z,26.7
2019-01-20T07:52:55.000Z,26.8
2019-01-20T07:54:55.000Z,26.9
2019-01-20T07:55:55.000Z,27
2019-01-20T07:56:55.000Z,27
2019-01-20T07:58:55.000Z,27.1
2019-01-20T08:00:55.000Z,27.2
2019-01-20T08:02:55.000Z,27.2
2019-01-20T08:04:55.000Z,27.3
2019-01-20T08:05:55.000Z,27.3
2019-01-20T08:06:55.000Z,27.3
2019-01-20T08:08:55.000Z,27.4
2019-01-20T08:09:55.000Z,27.5
2019-01-20T08:10:55.000Z,27.5
2019-01-20T08:11:55.000Z,27.5
2019-01-20T08:13:55.000Z,27.6
2019-01-20T08:15:55.000Z,27.6
2019-01-20T08:16:55.000Z,27.6
2019-01-20T08:17:55.000Z,27.7
2019-01-20T08:18:55.000Z,27.7
2019-01-20T08:20:55.000Z,27.8
2019-01-20T08:22:55.000Z,27.9
2019-01-20T08:23:55.000Z,27.9
2019-01-20T08:25:55.000Z,28
2019-01-20T08:26:55.000Z,28
2019-01-20T08:28:55.000Z,28
2019-01-20T08:30:55.000Z,28.1
2019-01-20T08:32:55.000Z,28.2
2019-01-20T08:34:55.000Z,28.1
2019-01-20T08:35:55.000Z,28.1
2019-01-20T08:36:55.000Z,28.1
2019-01-20T08:38:55.000Z,28
2019-01-20T08:40:55.000Z,28
2019-01-20T08:42:55.000Z,27.9
2019-01-20T08:44:55.000Z,27.9
2019-01-20T08:45:55.000Z,27.9
2019-01-20T08:47:55.000Z,27.8
2019-01-20T08:49:55.000Z,27.8
2019-01-20T08:51:56.000Z,27.8
2019-01-20T08:52:56.000Z,27.8
2019-01-20T08:54:56.000Z,27.7
2019-01-20T08:56:56.000Z,27.7
2019-01-20T08:58:56.000Z,27.7
2019-01-20T09:00:56.000Z,27.7
2019-01-20T09:02:56.000Z,27.7
2019-01-20T09:04:56.000Z,27.7
2019-01-20T09:05:56.000Z,27.6
2019-01-20T09:07:56.000Z,27.7
2019-01-20T09:09:56.000Z,27.6
2019-01-20T09:11:56.000Z,27.6
2019-01-20T09:13:56.000Z,27.6
2019-01-20T09:15:56.000Z,27.6
2019-01-20T09:17:56.000Z,27.6
2019-01-20T09:19:56.000Z,27.6
2019-01-20T09:21:56.000Z,27.6
2019-01-20T09:23:56.000Z,27.6
2019-01-20T09:25:56.000Z,27.6
2019-01-20T09:27:56.000Z,27.6
2019-01-20T09:28:56.000Z,27.6
2019-01-20T09:30:56.000Z,27.7
2019-01-20T09:32:56.000Z,27.7
2019-01-20T09:33:56.000Z,27.7
2019-01-20T09:34:56.000Z,27.7
2019-01-20T09:36:56.000Z,27.7
2019-01-20T09:38:56.000Z,27.7
2019-01-20T09:40:56.000Z,27.7
2019-01-20T09:42:56.000Z,27.7
2019-01-20T09:44:56.000Z,27.7
2019-01-20T09:45:56.000Z,27.7
2019-01-20T09:46:56.000Z,27.7
2019-01-20T09:47:56.000Z,27.7
2019-01-20T09:49:56.000Z,27.7
2019-01-20T09:51:56.000Z,27.7
2019-01-20T09:52:56.000Z,27.7
2019-01-20T09:54:56.000Z,27.8
2019-01-20T09:56:56.000Z,27.8
2019-01-20T09:58:56.000Z,27.8
2019-01-20T10:00:41.000Z,27.8
2019-01-20T10:01:56.000Z,27.8
2019-01-20T10:02:56.000Z,27.8
2019-01-20T10:04:56.000Z,27.8
2019-01-20T10:05:56.000Z,27.8
2019-01-20T10:07:56.000Z,27.8
2019-01-20T10:08:56.000Z,27.8
2019-01-20T10:10:56.000Z,27.8
2019-01-20T10:11:56.000Z,27.8
2019-01-20T10:13:56.000Z,27.8
2019-01-20T10:15:56.000Z,27.8
2019-01-20T10:16:56.000Z,27.8
2019-01-20T10:18:56.000Z,27.8
2019-01-20T10:19:56.000Z,27.8
2019-01-20T10:20:56.000Z,27.8
2019-01-20T10:22:56.000Z,27.8
2019-01-20T10:23:56.000Z,27.8
2019-01-20T10:25:56.000Z,27.9
2019-01-20T10:26:56.000Z,27.9
2019-01-20T10:28:56.000Z,27.9
2019-01-20T10:29:56.000Z,27.9
2019-01-20T10:31:56.000Z,27.9
2019-01-20T10:33:56.000Z,27.9
2019-01-20T10:34:56.000Z,27.9
2019-01-20T10:36:56.000Z,27.9
2019-01-20T10:38:56.000Z,27.9
2019-01-20T10:40:56.000Z,27.9
2019-01-20T10:41:56.000Z,27.9
2019-01-20T10:43:56.000Z,27.9
2019-01-20T10:45:41.000Z,27.9
2019-01-20T10:46:56.000Z,27.9
2019-01-20T10:48:56.000Z,27.9
2019-01-20T10:49:56.000Z,27.9
2019-01-20T10:51:56.000Z,27.9
2019-01-20T10:53:56.000Z,27.9
2019-01-20T10:54:56.000Z,27.9
2019-01-20T10:56:56.000Z,27.9
2019-01-20T10:58:56.000Z,28
2019-01-20T11:00:40.000Z,28
2019-01-20T11:01:56.000Z,28
2019-01-20T11:02:56.000Z,28
2019-01-20T11:04:56.000Z,28
2019-01-20T11:06:40.000Z,28
2019-01-20T11:07:56.000Z,28
2019-01-20T11:09:56.000Z,28
2019-01-20T11:11:56.000Z,28
2019-01-20T11:13:56.000Z,28
2019-01-20T11:15:55.000Z,28
2019-01-20T11:16:56.000Z,28
2019-01-20T11:18:56.000Z,28
2019-01-20T11:20:56.000Z,28
2019-01-20T11:22:56.000Z,28
2019-01-20T11:23:56.000Z,28
2019-01-20T11:25:56.000Z,28.1
2019-01-20T11:27:56.000Z,28.1
2019-01-20T11:29:56.000Z,28.1
2019-01-20T11:30:56.000Z,28.1
2019-01-20T11:32:41.000Z,28.1
2019-01-20T11:33:55.000Z,28.1
2019-01-20T11:34:56.000Z,28.1
2019-01-20T11:35:56.000Z,28.1
2019-01-20T11:37:56.000Z,28.1
2019-01-20T11:39:40.000Z,28.1
2019-01-20T11:40:56.000Z,28.1
2019-01-20T11:42:40.000Z,28.1
2019-01-20T11:43:56.000Z,28.1
2019-01-20T11:45:56.000Z,28.1
2019-01-20T11:47:41.000Z,28.1
2019-01-20T11:49:55.000Z,28.1
2019-01-20T11:50:56.000Z,28.1
2019-01-20T11:52:40.000Z,28.1
2019-01-20T11:53:56.000Z,28.1
2019-01-20T11:55:56.000Z,28.2
2019-01-20T11:56:56.000Z,28.2
2019-01-20T11:58:56.000Z,28.2
2019-01-20T11:59:56.000Z,28.2
2019-01-20T12:00:56.000Z,28.2
2019-01-20T12:01:56.000Z,28.2
2019-01-20T12:03:55.000Z,28.2
2019-01-20T12:04:55.000Z,28.2
2019-01-20T12:06:55.000Z,28.3
2019-01-20T12:08:55.000Z,28.3
2019-01-20T12:09:55.000Z,28.3
2019-01-20T12:11:40.000Z,28.3
2019-01-20T12:12:55.000Z,28.3
2019-01-20T12:14:40.000Z,28.3
2019-01-20T12:15:55.000Z,28.3
2019-01-20T12:16:55.000Z,28.3
2019-01-20T12:18:55.000Z,28.3
2019-01-20T12:19:55.000Z,28.3
2019-01-20T12:21:55.000Z,28.3
2019-01-20T12:22:55.000Z,28.4
2019-01-20T12:24:55.000Z,28.4
2019-01-20T12:25:55.000Z,28.4
2019-01-20T12:27:55.000Z,28.4
2019-01-20T12:28:55.000Z,28.4
2019-01-20T12:29:55.000Z,28.4
2019-01-20T12:30:55.000Z,28.4
2019-01-20T12:31:55.000Z,28.4
2019-01-20T12:33:55.000Z,28.4
2019-01-20T12:34:55.000Z,28.4
2019-01-20T12:36:55.000Z,28.4
2019-01-20T12:38:55.000Z,28.4
2019-01-20T12:40:55.000Z,28.4
2019-01-20T12:41:55.000Z,28.4
2019-01-20T12:43:55.000Z,28.4
2019-01-20T12:45:55.000Z,28.4
2019-01-20T12:47:55.000Z,28.4
2019-01-20T12:48:55.000Z,28.4
2019-01-20T12:50:55.000Z,28.4
2019-01-20T12:52:55.000Z,28.3
2019-01-20T12:53:55.000Z,28.3
2019-01-20T12:54:55.000Z,28.3
2019-01-20T12:55:55.000Z,28.3
2019-01-20T12:56:55.000Z,28.3
2019-01-20T12:57:55.000Z,28.3
2019-01-20T12:58:55.000Z,28.3
2019-01-20T13:00:55.000Z,28.3
2019-01-20T13:02:55.000Z,28.3
2019-01-20T13:04:55.000Z,28.3
2019-01-20T13:05:55.000Z,28.3
2019-01-20T13:06:55.000Z,28.3
2019-01-20T13:08:55.000Z,28.3
2019-01-20T13:09:55.000Z,28.3
2019-01-20T13:10:55.000Z,28.3
2019-01-20T13:11:55.000Z,28.3
2019-01-20T13:13:40.000Z,28.3
2019-01-20T13:14:55.000Z,28.3
2019-01-20T13:16:55.000Z,28.3
2019-01-20T13:18:55.000Z,28.3
2019-01-20T13:19:55.000Z,28.3
2019-01-20T13:20:55.000Z,28.3
2019-01-20T13:22:55.000Z,28.3
2019-01-20T13:23:55.000Z,28.3
2019-01-20T13:25:55.000Z,28.3
2019-01-20T13:27:55.000Z,28.3
2019-01-20T13:29:55.000Z,28.3
2019-01-20T13:30:55.000Z,28.3
2019-01-20T13:32:55.000Z,28.3
2019-01-20T13:34:55.000Z,28.3
2019-01-20T13:36:40.000Z,28.3
2019-01-20T13:37:55.000Z,28.3
2019-01-20T13:38:55.000Z,28.3
2019-01-20T13:39:55.000Z,28.3
2019-01-20T13:40:55.000Z,28.3
2019-01-20T13:41:55.000Z,28.3
2019-01-20T13:43:55.000Z,28.3
2019-01-20T13:45:55.000Z,28.3
2019-01-20T13:46:55.000Z,28.3
2019-01-20T13:48:55.000Z,28.3
2019-01-20T13:49:55.000Z,28.3
2019-01-20T13:50:55.000Z,28.3
2019-01-20T13:52:55.000Z,28.3
2019-01-20T13:54:55.000Z,28.3
2019-01-20T13:55:55.000Z,28.3
2019-01-20T13:57:55.000Z,28.3
2019-01-20T13:59:55.000Z,28.3
2019-01-20T14:01:55.000Z,28.2
2019-01-20T14:03:55.000Z,28.2
2019-01-20T14:05:55.000Z,28.3
2019-01-20T14:07:40.000Z,28.2
2019-01-20T14:08:40.000Z,28.3
2019-01-20T14:09:55.000Z,28.2
2019-01-20T14:11:55.000Z,28.2
2019-01-20T14:12:55.000Z,28.2
2019-01-20T14:14:55.000Z,28.2
2019-01-20T14:15:55.000Z,28.2
2019-01-20T14:17:55.000Z,28.3
2019-01-20T14:19:55.000Z,28.3
2019-01-20T14:20:55.000Z,28.3
2019-01-20T14:21:55.000Z,28.3
2019-01-20T14:22:55.000Z,28.3
2019-01-20T14:23:55.000Z,28.3
2019-01-20T14:24:55.000Z,28.3
2019-01-20T14:26:55.000Z,28.4
2019-01-20T14:27:55.000Z,28.4
2019-01-20T14:29:55.000Z,28.4
2019-01-20T14:31:55.000Z,28.4
2019-01-20T14:33:55.000Z,28.4
2019-01-20T14:34:55.000Z,28.4
2019-01-20T14:35:55.000Z,28.4
2019-01-20T14:37:55.000Z,28.4
2019-01-20T14:38:55.000Z,28.4
2019-01-20T14:40:55.000Z,28.4
2019-01-20T14:41:55.000Z,28.4
2019-01-20T14:43:55.000Z,28.4
2019-01-20T14:44:55.000Z,28.4
2019-01-20T14:46:40.000Z,28.3
2019-01-20T14:47:55.000Z,28.3
2019-01-20T14:49:55.000Z,28.3
2019-01-20T14:50:55.000Z,28.3
2019-01-20T14:51:55.000Z,28.3
2019-01-20T14:53:55.000Z,28.3
2019-01-20T14:54:55.000Z,28.3
2019-01-20T14:56:55.000Z,28.3
2019-01-20T14:57:55.000Z,28.3
2019-01-20T14:58:55.000Z,28.3
2019-01-20T15:00:40.000Z,28.3
2019-01-20T15:01:55.000Z,28.3
2019-01-20T15:03:55.000Z,28.3
2019-01-20T15:05:55.000Z,28.3
2019-01-20T15:07:55.000Z,28.2
2019-01-20T15:09:40.000Z,28.2
2019-01-20T15:10:55.000Z,28.2
2019-01-20T15:11:55.000Z,28.2
2019-01-20T15:12:55.000Z,28.2
2019-01-20T15:14:55.000Z,28.1
2019-01-20T15:16:56.000Z,28.1
2019-01-20T15:18:56.000Z,28.1
2019-01-20T15:19:56.000Z,28.1
2019-01-20T15:21:56.000Z,28.1
2019-01-20T15:22:56.000Z,28
2019-01-20T15:24:56.000Z,28
2019-01-20T15:25:56.000Z,28
2019-01-20T15:26:56.000Z,28
2019-01-20T15:27:56.000Z,28
2019-01-20T15:29:56.000Z,28
2019-01-20T15:31:56.000Z,28
2019-01-20T15:32:56.000Z,28
2019-01-20T15:34:56.000Z,28
2019-01-20T15:36:56.000Z,28
2019-01-20T15:38:56.000Z,28
2019-01-20T15:40:56.000Z,28
2019-01-20T15:42:56.000Z,27.9
2019-01-20T15:43:56.000Z,27.9
2019-01-20T15:45:56.000Z,27.9
2019-01-20T15:47:56.000Z,27.9
2019-01-20T15:49:56.000Z,27.9
2019-01-20T15:51:56.000Z,27.9
2019-01-20T15:53:56.000Z,27.9
2019-01-20T15:54:56.000Z,27.9
2019-01-20T15:56:56.000Z,27.9
2019-01-20T15:57:56.000Z,27.9
2019-01-20T15:58:56.000Z,27.9
2019-01-20T16:00:56.000Z,27.9
2019-01-20T16:01:56.000Z,27.9
2019-01-20T16:02:56.000Z,27.9
2019-01-20T16:04:56.000Z,27.9
2019-01-20T16:05:56.000Z,27.8
2019-01-20T16:07:56.000Z,27.8
2019-01-20T16:09:56.000Z,27.8
2019-01-20T16:10:56.000Z,27.8
2019-01-20T16:12:56.000Z,27.8
2019-01-20T16:14:56.000Z,27.8
2019-01-20T16:15:56.000Z,27.8
2019-01-20T16:17:56.000Z,27.7
2019-01-20T16:19:56.000Z,27.7
2019-01-20T16:20:56.000Z,27.7
2019-01-20T16:22:56.000Z,27.7
2019-01-20T16:23:56.000Z,27.7
2019-01-20T16:25:56.000Z,27.7
2019-01-20T16:27:40.000Z,27.7
2019-01-20T16:28:56.000Z,27.7
2019-01-20T16:30:56.000Z,27.7
2019-01-20T16:32:56.000Z,27.6
2019-01-20T16:33:56.000Z,27.6
2019-01-20T16:35:56.000Z,27.6
2019-01-20T16:37:56.000Z,27.6
2019-01-20T16:38:56.000Z,27.6
2019-01-20T16:40:56.000Z,27.6
2019-01-20T16:41:56.000Z,27.6
2019-01-20T16:42:56.000Z,27.6
2019-01-20T16:43:56.000Z,27.6
2019-01-20T16:44:56.000Z,27.6
2019-01-20T16:46:56.000Z,27.6
2019-01-20T16:47:56.000Z,27.6
2019-01-20T16:48:56.000Z,27.6
2019-01-20T16:50:56.000Z,27.6
2019-01-20T16:52:56.000Z,27.6
2019-01-20T16:53:56.000Z,27.6
2019-01-20T16:55:56.000Z,27.6
2019-01-20T16:56:56.000Z,27.6
2019-01-20T16:58:56.000Z,27.6
2019-01-20T16:59:56.000Z,27.5
2019-01-20T17:00:56.000Z,27.5
2019-01-20T17:02:56.000Z,27.5
2019-01-20T17:03:56.000Z,27.5
2019-01-20T17:04:56.000Z,27.5
2019-01-20T17:06:40.000Z,27.5
2019-01-20T17:07:56.000Z,27.5
2019-01-20T17:08:56.000Z,27.5
2019-01-20T17:10:56.000Z,27.5
2019-01-20T17:11:56.000Z,27.5
2019-01-20T17:13:56.000Z,27.5
2019-01-20T17:15:41.000Z,27.5
2019-01-20T17:16:56.000Z,27.5
2019-01-20T17:17:56.000Z,27.5
2019-01-20T17:19:56.000Z,27.4
2019-01-20T17:20:56.000Z,27.4
2019-01-20T17:21:56.000Z,27.4
2019-01-20T17:23:56.000Z,27.4
2019-01-20T17:25:56.000Z,27.4
2019-01-20T17:27:56.000Z,27.4
2019-01-20T17:29:56.000Z,27.4
2019-01-20T17:31:56.000Z,27.4
2019-01-20T17:33:56.000Z,27.4
2019-01-20T17:34:56.000Z,27.4
2019-01-20T17:35:56.000Z,27.4
2019-01-20T17:37:41.000Z,27.4
2019-01-20T17:38:56.000Z,27.4
2019-01-20T17:40:56.000Z,27.4
2019-01-20T17:42:56.000Z,27.4
2019-01-20T17:43:56.000Z,27.4
2019-01-20T17:44:56.000Z,27.4
2019-01-20T17:46:56.000Z,27.4
2019-01-20T17:47:56.000Z,27.3
2019-01-20T17:49:56.000Z,27.3
2019-01-20T17:51:56.000Z,27.3
2019-01-20T17:52:56.000Z,27.3
2019-01-20T17:54:56.000Z,27.3
2019-01-20T17:56:56.000Z,27.3
2019-01-20T17:57:56.000Z,27.3
2019-01-20T17:59:56.000Z,27.3
2019-01-20T18:00:56.000Z,27.3
2019-01-20T18:01:56.000Z,27.3
2019-01-20T18:03:56.000Z,27.3
2019-01-20T18:04:56.000Z,27.3
2019-01-20T18:06:56.000Z,27.3
2019-01-20T18:08:56.000Z,27.3
2019-01-20T18:10:56.000Z,27.2
2019-01-20T18:11:56.000Z,27.3
2019-01-20T18:12:56.000Z,27.2
2019-01-20T18:13:56.000Z,27.2
2019-01-20T18:14:56.000Z,27.3
2019-01-20T18:16:56.000Z,27.3
2019-01-20T18:18:56.000Z,27.3
2019-01-20T18:20:56.000Z,27.2
2019-01-20T18:21:56.000Z,27.2
2019-01-20T18:23:40.000Z,27.2
2019-01-20T18:24:56.000Z,27.2
2019-01-20T18:26:56.000Z,27.2
2019-01-20T18:27:56.000Z,27.2
2019-01-20T18:29:55.000Z,27.2
2019-01-20T18:31:55.000Z,27.2
2019-01-20T18:32:55.000Z,27.2
2019-01-20T18:33:55.000Z,27.2
2019-01-20T18:35:55.000Z,27.2
2019-01-20T18:36:55.000Z,27.2
2019-01-20T18:37:55.000Z,27.2
2019-01-20T18:38:55.000Z,27.2
2019-01-20T18:40:55.000Z,27.2
2019-01-20T18:42:40.000Z,27.2
2019-01-20T18:43:55.000Z,27.2
2019-01-20T18:44:55.000Z,27.2
2019-01-20T18:46:40.000Z,27.2
2019-01-20T18:47:55.000Z,27.2
2019-01-20T18:49:55.000Z,27.2
2019-01-20T18:50:55.000Z,27.2
2019-01-20T18:51:55.000Z,27.2
2019-01-20T18:52:55.000Z,27.2
2019-01-20T18:54:55.000Z,27.2
2019-01-20T18:56:55.000Z,27.2
2019-01-20T18:57:55.000Z,27.2
2019-01-20T18:58:55.000Z,27.2
2019-01-20T19:00:55.000Z,27.2
2019-01-20T19:02:40.000Z,27.2
2019-01-20T19:03:55.000Z,27.2
2019-01-20T19:04:55.000Z,27.2
2019-01-20T19:06:55.000Z,27.2
2019-01-20T19:07:55.000Z,27.2
2019-01-20T19:09:55.000Z,27.1
2019-01-20T19:11:55.000Z,27.1
2019-01-20T19:12:55.000Z,27.1
2019-01-20T19:14:55.000Z,27.1
2019-01-20T19:16:55.000Z,27.1
2019-01-20T19:17:55.000Z,27.1
2019-01-20T19:19:55.000Z,27.1
2019-01-20T19:21:40.000Z,27.1
2019-01-20T19:22:55.000Z,27.1
2019-01-20T19:23:55.000Z,27.1
2019-01-20T19:24:55.000Z,27.1
2019-01-20T19:26:55.000Z,27.1
2019-01-20T19:27:55.000Z,27.1
2019-01-20T19:29:55.000Z,27.1
2019-01-20T19:31:55.000Z,27.2
2019-01-20T19:33:55.000Z,27.1
2019-01-20T19:35:55.000Z,27.1
2019-01-20T19:37:55.000Z,27.1
2019-01-20T19:39:55.000Z,27.1
2019-01-20T19:41:55.000Z,27.1
2019-01-20T19:42:55.000Z,27.1
2019-01-20T19:44:40.000Z,27.1
2019-01-20T19:45:55.000Z,27.1
2019-01-20T19:47:55.000Z,27.1
2019-01-20T19:49:55.000Z,27.1
2019-01-20T19:50:55.000Z,27.1
2019-01-20T19:52:55.000Z,27.1
2019-01-20T19:53:55.000Z,27.1
2019-01-20T19:55:55.000Z,27.1
2019-01-20T19:57:55.000Z,27
2019-01-20T19:58:55.000Z,27
2019-01-20T20:00:55.000Z,27.1
2019-01-20T20:02:55.000Z,27.1
2019-01-20T20:03:55.000Z,27.1
2019-01-20T20:05:55.000Z,27.1
2019-01-20T20:07:55.000Z,27.1
2019-01-20T20:08:55.000Z,27.1
2019-01-20T20:09:55.000Z,27.1
2019-01-20T20:10:55.000Z,27
2019-01-20T20:12:55.000Z,27
2019-01-20T20:13:55.000Z,27
2019-01-20T20:15:55.000Z,27
2019-01-20T20:16:55.000Z,27
2019-01-20T20:18:55.000Z,27
2019-01-20T20:20:55.000Z,27
2019-01-20T20:21:55.000Z,27
2019-01-20T20:22:55.000Z,27
2019-01-20T20:24:55.000Z,27
2019-01-20T20:25:55.000Z,27
2019-01-20T20:27:55.000Z,27
2019-01-20T20:28:55.000Z,27
2019-01-20T20:29:55.000Z,27
2019-01-20T20:31:55.000Z,27
2019-01-20T20:33:40.000Z,27
2019-01-20T20:34:55.000Z,27
2019-01-20T20:35:55.000Z,27
2019-01-20T20:36:55.000Z,27
2019-01-20T20:37:55.000Z,27
2019-01-20T20:39:55.000Z,27
2019-01-20T20:40:55.000Z,27
2019-01-20T20:41:55.000Z,27
2019-01-20T20:43:55.000Z,27
2019-01-20T20:44:55.000Z,27
2019-01-20T20:46:40.000Z,27